Time;durP1;ratioP1;P1;durP2;ratioP2;P2;SDS_P1;SDS_P2;PMS_P1;PMS_P2;Temp;Humidity;BMP_temperature;BMP_pressure;BME280_temperature;BME280_humidity;BME280_pressure;Samples;Min_cycle;Max_cycle;Signal;HPM_P1;HPM_P2
2023/10/20 00:01:32;;;;;;;28.48;15.73;;;;;;;13.39;100.00;98371.72;5010167;28;20112;-74
2023/10/20 00:03:58;;;;;;;27.58;15.27;;;;;;;13.39;100.00;98371.72;4993561;28;20022;-73
2023/10/20 00:06:23;;;;;;;26.38;14.23;;;;;;;13.38;100.00;98372.75;5011002;28;20427;-75
2023/10/20 00:08:48;;;;;;;27.48;15.85;;;;;;;13.39;100.00;98371.72;5011233;28;20033;-74
2023/10/20 00:11:14;;;;;;;24.42;15.13;;;;;;;13.38;100.00;98363.81;4993951;28;20026;-73
2023/10/20 00:13:40;;;;;;;28.60;15.00;;;;;;;13.39;100.00;98354.69;4993877;28;20622;-74
2023/10/20 00:16:06;;;;;;;28.23;15.50;;;;;;;13.39;100.00;98343.91;4993692;28;20545;-73
2023/10/20 00:18:31;;;;;;;26.08;14.68;;;;;;;13.39;100.00;98341.22;4992800;28;20057;-73
2023/10/20 00:20:57;;;;;;;28.27;15.73;;;;;;;13.40;100.00;98345.59;5010949;28;20030;-73
2023/10/20 00:23:22;;;;;;;27.35;15.93;;;;;;;13.40;100.00;98342.88;4993756;28;20033;-73
2023/10/20 00:25:47;;;;;;;25.52;15.32;;;;;;;13.39;100.00;98330.41;5010658;28;20026;-74
2023/10/20 00:28:12;;;;;;;28.85;16.00;;;;;;;13.39;100.00;98322.31;5010675;28;20029;-74
2023/10/20 00:30:41;;;;;;;26.60;15.23;;;;;;;13.39;100.00;98322.31;5010865;28;20036;-73
2023/10/20 00:33:07;;;;;;;25.38;15.45;;;;;;;13.39;100.00;98319.63;4992616;28;20034;-73
2023/10/20 00:35:33;;;;;;;26.40;14.90;;;;;;;13.37;100.00;98311.72;4993547;28;20022;-74
2023/10/20 00:37:59;;;;;;;27.75;15.63;;;;;;;13.38;100.00;98290.97;5010495;28;20033;-74
2023/10/20 00:40:25;;;;;;;27.27;15.63;;;;;;;13.37;100.00;98286.63;4993201;28;20026;-73
2023/10/20 00:42:50;;;;;;;27.52;15.02;;;;;;;13.36;100.00;98274.16;4992843;28;20069;-74
2023/10/20 00:45:16;;;;;;;27.25;15.50;;;;;;;13.36;100.00;98274.16;4992984;28;20050;-73
2023/10/20 00:47:44;;;;;;;27.65;14.85;;;;;;;13.35;100.00;98261.69;5009917;28;20062;-73
2023/10/20 00:50:11;;;;;;;29.23;15.52;;;;;;;13.35;100.00;98269.78;5010261;28;20408;-73
2023/10/20 00:52:37;;;;;;;25.98;14.98;;;;;;;13.34;100.00;98260.88;4992797;28;20091;-73
2023/10/20 00:55:07;;;;;;;26.65;15.75;;;;;;;13.34;100.00;98266.25;4992843;28;20026;-74
2023/10/20 00:57:36;;;;;;;27.38;14.45;;;;;;;13.33;100.00;98253.75;4992177;28;20096;-73
2023/10/20 01:00:04;;;;;;;26.42;15.48;;;;;;;13.34;100.00;98249.19;4992595;28;20026;-74
2023/10/20 01:02:30;;;;;;;28.20;13.90;;;;;;;13.33;100.00;98247.53;4992357;28;20032;-73
2023/10/20 01:04:56;;;;;;;30.75;17.17;;;;;;;13.32;100.00;98238.59;5010375;28;20448;-74
2023/10/20 01:07:22;;;;;;;26.77;14.57;;;;;;;13.32;100.00;98243.16;5010401;28;20446;-75
2023/10/20 01:09:47;;;;;;;27.40;15.30;;;;;;;13.30;100.00;98235.28;5008877;28;20101;-74
2023/10/20 01:12:12;;;;;;;29.95;16.50;;;;;;;13.31;100.00;98234.25;4992659;28;20148;-74
2023/10/20 01:14:38;;;;;;;28.42;15.70;;;;;;;13.30;100.00;98227.19;5010866;28;20436;-74
2023/10/20 01:17:04;;;;;;;29.75;15.43;;;;;;;13.31;100.00;98223.47;5010106;28;20026;-75
2023/10/20 01:19:29;;;;;;;25.67;14.45;;;;;;;13.28;100.00;98208.50;5010275;28;20026;-74
2023/10/20 01:21:54;;;;;;;27.63;16.00;;;;;;;13.29;100.00;98204.78;5008487;28;20061;-74
2023/10/20 01:24:20;;;;;;;27.45;16.08;;;;;;;13.29;100.00;98209.31;5010777;28;20030;-73
2023/10/20 01:26:45;;;;;;;28.65;16.17;;;;;;;13.29;100.00;98202.06;5008786;28;20114;-75
2023/10/20 01:29:12;;;;;;;29.90;17.80;;;;;;;13.29;100.00;98201.22;5009749;28;20415;-73
2023/10/20 01:31:38;;;;;;;27.63;16.05;;;;;;;13.27;100.00;98193.31;5008858;28;20538;-75
2023/10/20 01:34:03;;;;;;;27.85;15.07;;;;;;;13.26;100.00;98194.34;4992182;28;20120;-73
2023/10/20 01:36:29;;;;;;;29.60;15.77;;;;;;;13.27;100.00;98195.19;5010082;28;20145;-74
2023/10/20 01:38:54;;;;;;;27.63;17.70;;;;;;;13.27;100.00;98195.19;4992357;28;20057;-74
2023/10/20 01:41:19;;;;;;;28.73;17.58;;;;;;;13.27;100.00;98193.31;5010141;28;20770;-73
2023/10/20 01:43:45;;;;;;;27.92;16.63;;;;;;;13.27;100.00;98201.41;4991940;28;20041;-74
2023/10/20 01:46:10;;;;;;;26.55;15.65;;;;;;;13.27;100.00;98197.91;5010118;28;20069;-74
2023/10/20 01:48:35;;;;;;;30.55;17.92;;;;;;;13.27;100.00;98185.22;5009627;28;20199;-73
2023/10/20 01:51:01;;;;;;;30.80;18.33;;;;;;;13.27;100.00;98176.31;5009634;28;20145;-74
2023/10/20 01:53:26;;;;;;;28.40;15.95;;;;;;;13.28;100.00;98186.09;5013231;28;20041;-73
2023/10/20 01:55:52;;;;;;;27.98;16.95;;;;;;;13.27;100.00;98184.41;5013393;28;20128;-73
2023/10/20 01:58:18;;;;;;;29.73;18.00;;;;;;;13.26;100.00;98180.84;5013501;28;20030;-74
2023/10/20 02:00:48;;;;;;;29.95;17.63;;;;;;;13.26;100.00;98161.97;5013498;28;20041;-74
2023/10/20 02:03:13;;;;;;;28.75;17.92;;;;;;;13.26;100.00;98145.78;4995601;28;20028;-74
2023/10/20 02:05:38;;;;;;;29.25;16.27;;;;;;;13.26;100.00;98151.19;5012862;28;20037;-73
2023/10/20 02:08:04;;;;;;;28.45;16.92;;;;;;;13.25;100.00;98133.38;4995504;28;20360;-74
2023/10/20 02:10:31;;;;;;;29.13;16.77;;;;;;;13.26;100.00;98131.50;4994919;28;20533;-74
2023/10/20 02:12:56;;;;;;;28.88;16.55;;;;;;;13.26;100.00;98128.78;5011344;28;20104;-74
2023/10/20 02:15:21;;;;;;;28.38;16.75;;;;;;;13.26;100.00;98132.31;5013108;28;20109;-73
2023/10/20 02:17:47;;;;;;;28.98;16.65;;;;;;;13.26;100.00;98136.88;5012543;28;20475;-74
2023/10/20 02:20:15;;;;;;;28.65;16.70;;;;;;;13.26;100.00;98129.63;5012827;28;20029;-74
2023/10/20 02:22:41;;;;;;;29.05;17.85;;;;;;;13.27;100.00;98125.06;5012580;28;20029;-76
2023/10/20 02:25:08;;;;;;;29.88;18.80;;;;;;;13.27;100.00;98117.81;4994639;28;20044;-75
2023/10/20 02:27:34;;;;;;;29.25;17.48;;;;;;;13.26;100.00;98113.44;5011315;28;20034;-76
2023/10/20 02:29:59;;;;;;;30.92;18.25;;;;;;;13.27;100.00;98103.50;4995221;28;20084;-75
2023/10/20 02:32:24;;;;;;;30.35;18.85;;;;;;;13.28;100.00;98099.78;5011360;28;20037;-76
2023/10/20 02:34:49;;;;;;;30.08;17.80;;;;;;;13.27;100.00;98093.53;4995917;28;20025;-75
2023/10/20 02:37:15;;;;;;;30.38;17.48;;;;;;;13.27;100.00;98087.31;5011600;28;20546;-75
2023/10/20 02:39:40;;;;;;;29.58;18.17;;;;;;;13.27;100.00;98077.34;5012429;28;20053;-76
2023/10/20 02:42:06;;;;;;;30.13;19.30;;;;;;;13.28;100.00;98072.81;5012161;28;20487;-75
2023/10/20 02:44:31;;;;;;;29.38;18.08;;;;;;;13.28;100.00;98084.41;4994535;28;20406;-76
2023/10/20 02:46:57;;;;;;;28.92;18.63;;;;;;;13.28;100.00;98073.63;5012532;28;20029;-76
2023/10/20 02:49:23;;;;;;;31.58;19.73;;;;;;;13.27;100.00;98066.56;4996181;28;20040;-75
2023/10/20 02:51:48;;;;;;;29.42;18.67;;;;;;;13.29;100.00;98052.88;5011379;28;20025;-76
2023/10/20 02:54:13;;;;;;;31.80;19.73;;;;;;;13.29;100.00;98051.03;5012560;28;20061;-76
2023/10/20 02:56:39;;;;;;;30.05;18.80;;;;;;;13.29;100.00;98048.31;5012812;28;20029;-76
2023/10/20 02:59:04;;;;;;;30.35;18.90;;;;;;;13.32;100.00;98048.94;5012743;28;20053;-75
2023/10/20 03:01:30;;;;;;;37.17;19.13;;;;;;;13.31;100.00;98039.19;5012932;28;20069;-76
2023/10/20 03:03:57;;;;;;;29.70;19.20;;;;;;;13.31;100.00;98028.41;4994469;28;20085;-76
2023/10/20 03:06:23;;;;;;;30.35;19.25;;;;;;;13.32;100.00;98021.97;4995170;28;20018;-76
2023/10/20 03:08:48;;;;;;;31.52;20.05;;;;;;;13.32;100.00;98013.88;4994569;28;20490;-75
2023/10/20 03:11:13;;;;;;;32.47;18.65;;;;;;;13.32;100.00;98008.50;4994326;28;20029;-76
2023/10/20 03:13:39;;;;;;;31.00;17.98;;;;;;;13.33;100.00;98004.78;4995008;28;20538;-76
2023/10/20 03:16:05;;;;;;;33.72;18.05;;;;;;;13.33;100.00;98012.84;5011106;28;20117;-76
2023/10/20 03:18:31;;;;;;;28.65;17.73;;;;;;;13.33;100.00;98016.38;5012113;28;20032;-76
2023/10/20 03:21:03;;;;;;;28.42;17.45;;;;;;;13.34;100.00;98018.09;5011923;28;20061;-76
2023/10/20 03:23:29;;;;;;;31.67;18.88;;;;;;;13.34;100.00;98017.19;4994173;28;20040;-75
2023/10/20 03:25:55;;;;;;;32.45;17.88;;;;;;;13.35;100.00;98008.13;5011256;28;20507;-76
2023/10/20 03:28:20;;;;;;;27.48;16.58;;;;;;;13.35;100.00;98008.13;5011702;28;20048;-76
2023/10/20 03:30:46;;;;;;;30.33;17.98;;;;;;;13.36;100.00;97999.00;4999385;28;20495;-75
2023/10/20 03:33:13;;;;;;;28.95;17.45;;;;;;;13.36;100.00;97985.50;5011451;28;20029;-74
2023/10/20 03:35:39;;;;;;;29.58;17.73;;;;;;;13.37;100.00;97984.50;5011267;28;20400;-74
2023/10/20 03:38:06;;;;;;;29.77;18.75;;;;;;;13.37;100.00;97973.69;4993186;28;20201;-73
2023/10/20 03:40:36;;;;;;;30.60;19.00;;;;;;;13.37;100.00;97973.69;5009946;28;20036;-74
2023/10/20 03:43:02;;;;;;;29.77;19.25;;;;;;;13.38;100.00;97975.34;5010693;28;20132;-74
2023/10/20 03:45:28;;;;;;;28.73;17.25;;;;;;;13.36;100.00;97980.94;4993338;28;20555;-75
2023/10/20 03:47:53;;;;;;;32.42;18.90;;;;;;;13.36;100.00;97983.63;4998591;28;20128;-73
2023/10/20 03:50:19;;;;;;;29.92;18.48;;;;;;;13.37;100.00;97979.91;5010833;28;20038;-74
2023/10/20 03:52:48;;;;;;;30.77;18.80;;;;;;;13.37;100.00;97976.41;5011317;28;20029;-74
2023/10/20 03:55:17;;;;;;;29.92;19.15;;;;;;;13.36;100.00;97940.47;5009310;28;20377;-74
2023/10/20 03:57:43;;;;;;;29.95;18.98;;;;;;;13.38;100.00;97945.66;5010823;28;20022;-74
2023/10/20 04:00:28;;;;;;;30.35;19.02;;;;;;;13.35;100.00;97956.88;5025741;28;20030;-74
2023/10/20 04:02:53;;;;;;;30.58;19.58;;;;;;;13.35;100.00;97956.88;5010658;28;20159;-74
2023/10/20 04:05:19;;;;;;;35.20;20.85;;;;;;;13.34;100.00;97947.06;5009688;28;20501;-74
2023/10/20 04:07:45;;;;;;;32.60;19.85;;;;;;;13.34;100.00;97947.06;5025966;28;20455;-74
2023/10/20 04:10:10;;;;;;;31.08;19.55;;;;;;;13.34;100.00;97941.66;5010795;28;20365;-74
2023/10/20 04:12:41;;;;;;;32.17;20.25;;;;;;;13.33;100.00;97934.63;5010463;28;20350;-74
2023/10/20 04:15:14;;;;;;;30.95;19.38;;;;;;;13.31;100.00;97915.09;5010025;28;20445;-74
2023/10/20 04:17:40;;;;;;;34.25;20.55;;;;;;;13.31;100.00;97917.81;5010225;28;20030;-74
2023/10/20 04:20:15;;;;;;;27.98;17.90;;;;;;;13.30;100.00;97908.88;5010088;28;20033;-74
2023/10/20 04:22:42;;;;;;;30.13;19.10;;;;;;;13.29;100.00;97897.28;5009073;28;20061;-74
2023/10/20 04:25:12;;;;;;;30.70;18.88;;;;;;;13.29;100.00;97905.38;5008661;28;20033;-74
2023/10/20 04:27:51;;;;;;;29.00;18.73;;;;;;;13.29;100.00;97893.72;5009004;28;20029;-74
2023/10/20 04:54:37;;;;;;;30.80;19.10;;;;;;;13.28;100.00;97830.06;5009272;28;20136;-76
2023/10/20 04:59:56;;;;;;;29.50;18.40;;;;;;;13.26;100.00;97822.16;5009145;28;20048;-74
2023/10/20 05:02:33;;;;;;;31.67;21.02;;;;;;;13.25;100.00;97809.72;5008951;28;20048;-74
2023/10/20 05:05:01;;;;;;;31.27;20.05;;;;;;;13.24;100.00;97799.94;5009121;28;20072;-75
2023/10/20 05:07:28;;;;;;;30.30;19.45;;;;;;;13.24;100.00;97794.56;5009113;28;20036;-75
2023/10/20 05:09:54;;;;;;;30.10;18.92;;;;;;;13.22;100.00;97785.84;5008011;28;20042;-76
2023/10/20 05:12:20;;;;;;;30.70;19.60;;;;;;;13.21;100.00;97781.50;5007229;28;20033;-75
2023/10/20 05:14:47;;;;;;;33.38;19.90;;;;;;;13.23;100.00;97794.78;5009175;28;20342;-76
2023/10/20 05:17:15;;;;;;;31.77;19.40;;;;;;;13.22;100.00;97783.16;5007754;28;20116;-76
2023/10/20 05:19:40;;;;;;;31.00;20.92;;;;;;;13.20;100.00;97779.00;5008816;28;20029;-76
2023/10/20 05:22:05;;;;;;;31.67;20.30;;;;;;;13.20;100.00;97774.44;5008704;28;20403;-76
2023/10/20 05:24:31;;;;;;;33.42;20.63;;;;;;;13.20;100.00;97765.50;5007110;28;20056;-76
2023/10/20 05:26:56;;;;;;;34.28;22.20;;;;;;;13.19;100.00;97764.69;5009586;28;20068;-76
2023/10/20 05:29:22;;;;;;;30.98;19.63;;;;;;;13.17;100.00;97764.06;5011370;28;20022;-76
2023/10/20 05:31:47;;;;;;;33.65;21.48;;;;;;;13.18;100.00;97771.13;5012426;28;20038;-76
2023/10/20 05:34:13;;;;;;;33.17;22.73;;;;;;;13.17;100.00;97777.53;5012919;28;20029;-76
2023/10/20 05:36:38;;;;;;;34.83;22.27;;;;;;;13.16;100.00;97781.25;5011322;28;20406;-76
2023/10/20 05:39:04;;;;;;;32.28;22.33;;;;;;;13.17;100.00;97782.94;5011138;28;20021;-76
2023/10/20 05:41:29;;;;;;;31.95;21.15;;;;;;;13.17;100.00;97787.50;5011185;28;20041;-76
2023/10/20 05:43:55;;;;;;;36.15;24.15;;;;;;;13.16;100.00;97783.97;5012303;28;20034;-76
2023/10/20 05:46:21;;;;;;;34.97;23.95;;;;;;;13.16;100.00;97770.47;5011026;28;20054;-76
2023/10/20 05:48:47;;;;;;;33.20;21.83;;;;;;;13.17;100.00;97769.44;5010600;28;20042;-76
2023/10/20 05:51:13;;;;;;;34.15;23.27;;;;;;;13.18;100.00;97773.81;5012335;28;20068;-76
2023/10/20 05:53:38;;;;;;;34.55;23.42;;;;;;;13.18;100.00;97763.03;5012526;28;20051;-76
2023/10/20 05:56:04;;;;;;;34.75;24.38;;;;;;;13.19;100.00;97761.16;5010956;28;20053;-75
2023/10/20 05:58:32;;;;;;;33.20;23.77;;;;;;;13.18;100.00;97754.13;5010608;28;20483;-76
2023/10/20 06:01:03;;;;;;;33.00;23.43;;;;;;;13.18;100.00;97760.34;5011297;28;20030;-76
2023/10/20 06:03:29;;;;;;;38.00;23.73;;;;;;;13.19;100.00;97761.16;5010565;28;20726;-76
2023/10/20 06:06:00;;;;;;;32.22;23.17;;;;;;;13.18;100.00;97748.72;5012229;28;20092;-75
2023/10/20 06:08:25;;;;;;;34.28;24.65;;;;;;;13.18;100.00;97741.44;5012102;28;20117;-76
2023/10/20 06:10:52;;;;;;;39.88;25.67;;;;;;;13.18;100.00;97746.03;5010618;28;20445;-76
2023/10/20 06:13:18;;;;;;;37.38;25.95;;;;;;;13.16;100.00;97740.81;5010866;28;20053;-75
2023/10/20 06:15:44;;;;;;;36.40;25.35;;;;;;;13.17;100.00;97747.88;5010735;28;20522;-75
2023/10/20 06:18:09;;;;;;;34.72;23.20;;;;;;;13.14;100.00;97764.47;5010390;28;20104;-75
2023/10/20 06:20:38;;;;;;;36.20;25.02;;;;;;;13.16;100.00;97766.97;5011821;28;20065;-75
2023/10/20 06:23:04;;;;;;;33.47;23.73;;;;;;;13.16;100.00;97766.97;5011910;28;20032;-75
2023/10/20 06:25:31;;;;;;;34.15;22.52;;;;;;;13.12;100.00;97744.97;5010275;28;20109;-75
2023/10/20 06:27:56;;;;;;;32.50;23.08;;;;;;;13.14;100.00;97732.09;5010426;28;20032;-75
2023/10/20 06:30:22;;;;;;;31.73;21.60;;;;;;;13.14;100.00;97736.69;5010272;28;20394;-75
2023/10/20 06:33:16;;;;;;;30.38;20.88;;;;;;;13.12;100.00;97736.88;5011494;28;20030;-75
2023/10/20 06:35:52;;;;;;;30.77;20.65;;;;;;;13.12;100.00;97742.28;5010665;28;20030;-76
2023/10/20 06:40:51;;;;;;;32.25;21.15;;;;;;;13.12;100.00;97753.06;5011699;28;20052;-75
2023/10/20 06:43:19;;;;;;;33.30;20.48;;;;;;;13.13;100.00;97745.81;5010104;28;20043;-74
2023/10/20 06:45:44;;;;;;;32.78;21.80;;;;;;;13.13;100.00;97748.50;5010534;28;20041;-75
2023/10/20 06:48:10;;;;;;;31.25;19.95;;;;;;;13.10;100.00;97736.25;5026130;28;20041;-74
2023/10/20 06:50:35;;;;;;;30.10;20.42;;;;;;;13.10;100.00;97736.25;5010045;28;20049;-74
2023/10/20 06:53:01;;;;;;;29.55;20.95;;;;;;;13.09;100.00;97734.59;5010742;28;20117;-74
2023/10/20 06:55:29;;;;;;;32.55;21.60;;;;;;;13.09;100.00;97730.03;5011234;28;20056;-75
2023/10/20 06:57:54;;;;;;;32.80;22.17;;;;;;;13.09;100.00;97734.59;5009813;28;20045;-73
2023/10/20 07:00:20;;;;;;;32.33;22.75;;;;;;;13.08;100.00;97731.06;5011234;28;20487;-75
2023/10/20 07:02:46;;;;;;;33.78;23.17;;;;;;;13.07;100.00;97721.31;5011016;28;20046;-74
2023/10/20 07:05:12;;;;;;;34.38;22.75;;;;;;;13.08;100.00;97727.53;5011112;28;20025;-74
2023/10/20 07:07:38;;;;;;;32.33;22.10;;;;;;;13.08;100.00;97732.94;5009782;28;20484;-75
2023/10/20 07:10:03;;;;;;;31.40;21.60;;;;;;;13.07;100.00;97728.56;5010963;28;20097;-74
2023/10/20 07:12:29;;;;;;;28.63;19.30;;;;;;;13.07;100.00;97725.88;5011233;28;20029;-75
2023/10/20 07:14:54;;;;;;;34.25;21.80;;;;;;;13.06;100.00;97730.44;5010923;28;20486;-75
2023/10/20 07:17:19;;;;;;;31.23;20.92;;;;;;;13.08;100.00;97724.84;5009334;28;20040;-75
2023/10/20 07:19:45;;;;;;;31.48;20.00;;;;;;;13.07;100.00;97715.09;5010923;28;20483;-75
2023/10/20 07:22:10;;;;;;;30.30;20.05;;;;;;;13.07;100.00;97728.56;5026079;28;20061;-74
2023/10/20 07:24:35;;;;;;;31.48;20.45;;;;;;;13.07;100.00;97721.31;5009197;28;20068;-75
2023/10/20 07:27:02;;;;;;;29.73;20.35;;;;;;;13.07;100.00;97717.78;5009902;28;20037;-75
2023/10/20 07:29:27;;;;;;;29.42;19.40;;;;;;;13.07;100.00;97720.50;5009155;28;20076;-75
2023/10/20 07:31:53;;;;;;;31.23;19.27;;;;;;;13.08;100.00;97717.59;5010243;28;20029;-75
2023/10/20 07:34:19;;;;;;;27.60;17.98;;;;;;;13.09;100.00;97718.44;5010448;28;20026;-75
2023/10/20 07:36:45;;;;;;;29.52;18.92;;;;;;;13.10;100.00;97720.06;5010374;28;20041;-76
2023/10/20 07:39:16;;;;;;;29.73;18.25;;;;;;;13.11;100.00;97710.97;5009160;28;20029;-75
2023/10/20 07:41:41;;;;;;;27.38;17.40;;;;;;;13.11;100.00;97705.56;5010407;28;20545;-75
2023/10/20 07:44:08;;;;;;;29.60;18.73;;;;;;;13.12;100.00;97709.94;5025858;28;20026;-75
2023/10/20 07:46:34;;;;;;;29.02;18.95;;;;;;;13.13;100.00;97708.06;5010117;28;20037;-75
2023/10/20 07:49:00;;;;;;;28.90;18.17;;;;;;;13.12;100.00;97707.22;5008005;28;20053;-74
2023/10/20 07:51:25;;;;;;;29.15;17.58;;;;;;;13.12;100.00;97699.16;5025148;28;20034;-74
2023/10/20 07:53:51;;;;;;;27.45;16.90;;;;;;;13.13;100.00;97698.09;5010264;28;20038;-74
2023/10/20 07:56:16;;;;;;;27.52;16.63;;;;;;;13.10;100.00;97690.41;5010604;28;20026;-74
2023/10/20 07:58:41;;;;;;;26.20;15.98;;;;;;;13.11;100.00;97675.91;5009975;28;20503;-74
2023/10/20 08:01:07;;;;;;;24.95;14.77;;;;;;;13.10;100.00;97674.22;5008371;28;20042;-75
2023/10/20 08:03:32;;;;;;;25.63;15.02;;;;;;;13.10;100.00;97661.59;5009689;28;20034;-75
2023/10/20 08:06:02;;;;;;;24.30;14.30;;;;;;;13.11;100.00;97670.50;5009951;28;20022;-75
2023/10/20 08:08:28;;;;;;;29.80;14.65;;;;;;;13.10;100.00;97668.84;5002437;28;20485;-75
2023/10/20 08:10:53;;;;;;;26.92;14.73;;;;;;;13.13;100.00;97664.91;5009940;28;20022;-75
2023/10/20 08:13:19;;;;;;;25.58;14.75;;;;;;;13.09;100.00;97675.28;5010054;28;20050;-73
2023/10/20 08:15:44;;;;;;;25.45;12.60;;;;;;;13.10;100.00;97672.38;5009087;28;20384;-73
2023/10/20 08:18:10;;;;;;;24.15;13.82;;;;;;;13.10;100.00;97675.09;5010299;28;20108;-73
2023/10/20 08:20:36;;;;;;;26.85;14.05;;;;;;;13.10;100.00;97680.47;5010057;28;20390;-73
2023/10/20 08:23:02;;;;;;;23.17;12.65;;;;;;;13.11;100.00;97678.59;5024928;28;20017;-75
2023/10/20 08:25:28;;;;;;;24.50;12.07;;;;;;;13.10;100.00;97671.53;5008230;28;20049;-75
2023/10/20 08:27:53;;;;;;;21.33;11.52;;;;;;;13.11;100.00;97670.50;5008079;28;20344;-75
2023/10/20 08:30:20;;;;;;;22.17;10.80;;;;;;;13.10;100.00;97679.63;5009674;28;20646;-75
2023/10/20 08:32:46;;;;;;;22.25;10.88;;;;;;;13.09;100.00;97686.06;5008081;28;20446;-74
2023/10/20 08:35:11;;;;;;;20.58;10.02;;;;;;;13.07;100.00;97678.16;5008131;28;20101;-74
2023/10/20 08:37:37;;;;;;;22.30;10.00;;;;;;;13.06;100.00;97686.47;5007857;28;20038;-75
2023/10/20 08:40:02;;;;;;;20.30;9.43;;;;;;;13.07;100.00;97677.34;5008088;28;20022;-75
2023/10/20 08:42:29;;;;;;;19.63;9.18;;;;;;;13.03;100.00;97681.50;5009826;28;20083;-75
2023/10/20 08:44:55;;;;;;;19.75;8.82;;;;;;;13.03;100.00;97676.09;5009264;28;20049;-75
2023/10/20 08:47:23;;;;;;;20.58;8.68;;;;;;;13.01;100.00;97665.53;5007570;28;20104;-75
2023/10/20 08:49:48;;;;;;;20.63;9.13;;;;;;;13.02;100.00;97677.97;5009505;28;20077;-74
2023/10/20 08:52:13;;;;;;;18.90;8.43;;;;;;;13.01;100.00;97672.78;5009529;28;20025;-74
2023/10/20 08:54:39;;;;;;;20.17;8.07;;;;;;;13.01;100.00;97673.59;5024272;28;20033;-74
2023/10/20 08:57:05;;;;;;;17.80;7.55;;;;;;;12.98;100.00;97678.59;5008757;28;20033;-75
2023/10/20 08:59:31;;;;;;;18.77;6.90;;;;;;;12.98;100.00;97668.63;5009203;28;20030;-75
2023/10/20 09:01:57;;;;;;;18.50;7.93;;;;;;;12.99;100.00;97669.44;5007266;28;20030;-74
2023/10/20 09:04:23;;;;;;;17.35;6.88;;;;;;;12.97;100.00;97661.56;5009079;28;20029;-75
2023/10/20 09:06:49;;;;;;;16.13;6.10;;;;;;;12.97;100.00;97668.84;5024359;28;20037;-75
2023/10/20 09:09:15;;;;;;;20.35;7.45;;;;;;;12.96;100.00;97672.56;5023709;28;20037;-76
2023/10/20 09:11:41;;;;;;;19.52;8.00;;;;;;;12.96;100.00;97656.38;5008918;28;20052;-75
2023/10/20 09:14:07;;;;;;;21.02;8.60;;;;;;;12.93;100.00;97665.75;5007845;28;20033;-75
2023/10/20 09:16:34;;;;;;;19.02;7.88;;;;;;;12.90;100.00;97671.53;4999270;28;20100;-75
2023/10/20 09:18:59;;;;;;;19.25;8.63;;;;;;;12.88;100.00;97668.22;5007418;28;20462;-75
2023/10/20 09:21:26;;;;;;;16.08;7.00;;;;;;;12.87;100.00;97655.75;5008927;28;20026;-75
2023/10/20 09:23:58;;;;;;;17.52;6.72;;;;;;;12.82;100.00;97656.38;5007477;28;20029;-75
2023/10/20 09:26:26;;;;;;;16.30;6.38;;;;;;;12.81;100.00;97646.66;5008762;28;20061;-74
2023/10/20 09:28:53;;;;;;;16.48;6.07;;;;;;;12.82;100.00;97647.47;5023644;28;20491;-74
2023/10/20 09:31:20;;;;;;;14.82;5.78;;;;;;;12.79;100.00;97656.78;5007405;28;20029;-74
2023/10/20 09:33:46;;;;;;;16.75;5.40;;;;;;;12.77;100.00;97662.41;5008630;28;20061;-74
2023/10/20 09:36:12;;;;;;;12.25;4.85;;;;;;;12.76;100.00;97659.91;5007389;28;20537;-75
2023/10/20 09:38:38;;;;;;;14.40;5.60;;;;;;;12.74;100.00;97662.81;5008595;28;20165;-74
2023/10/20 09:41:11;;;;;;;13.90;4.50;;;;;;;12.73;100.00;97660.31;5008687;28;20207;-74
2023/10/20 09:43:42;;;;;;;13.35;4.63;;;;;;;12.72;100.00;97658.66;5023922;28;20574;-74
2023/10/20 09:46:44;;;;;;;11.35;4.20;;;;;;;12.69;100.00;97659.06;5024208;28;20030;-73
2023/10/20 09:49:20;;;;;;;14.30;4.85;;;;;;;12.67;100.00;97653.06;4987711;28;20103;-74
2023/10/20 09:51:47;;;;;;;10.95;3.92;;;;;;;12.65;100.00;97655.13;5009439;28;20029;-73
2023/10/20 09:54:15;;;;;;;15.25;4.57;;;;;;;12.65;100.00;97655.13;5008261;28;20021;-72
2023/10/20 09:56:42;;;;;;;11.80;4.70;;;;;;;12.62;100.00;97642.06;5024179;28;20041;-73
2023/10/20 09:59:09;;;;;;;9.60;3.95;;;;;;;12.58;100.00;97652.44;5009208;28;20383;-74
2023/10/20 10:01:37;;;;;;;11.43;3.92;;;;;;;12.57;100.00;97650.75;5009492;28;20036;-74
2023/10/20 10:04:04;;;;;;;12.10;4.10;;;;;;;12.58;100.00;97655.94;5024108;28;20033;-73
2023/10/20 10:06:35;;;;;;;11.30;4.15;;;;;;;12.58;100.00;97652.44;5009365;28;20022;-73
2023/10/20 10:09:04;;;;;;;10.85;3.80;;;;;;;12.56;100.00;97647.25;5009212;28;20091;-73
2023/10/20 10:11:30;;;;;;;;;;;;;;;12.61;100.00;97645.78;5001822;28;20368;-73
2023/10/20 10:14:21;;;;;;;10.10;3.83;;;;;;;12.56;100.00;97649.94;5010575;28;19925;-73
2023/10/20 10:16:56;;;;;;;10.00;3.95;;;;;;;12.56;100.00;97641.84;5011975;28;20109;-74
2023/10/20 10:19:26;;;;;;;10.63;3.95;;;;;;;12.57;100.00;97634.59;5027681;28;20428;-74
2023/10/20 10:21:54;;;;;;;12.98;4.35;;;;;;;12.56;100.00;97644.53;5011791;28;20021;-73
2023/10/20 10:24:22;;;;;;;11.07;4.57;;;;;;;12.57;100.00;97637.28;5011609;28;20032;-73
2023/10/20 10:26:52;;;;;;;11.55;4.50;;;;;;;12.59;100.00;97627.13;5013329;28;20125;-74
2023/10/20 10:29:19;;;;;;;13.18;4.28;;;;;;;12.62;100.00;97634.81;5012612;28;20026;-74
2023/10/20 10:31:45;;;;;;;12.63;4.28;;;;;;;12.62;100.00;97634.81;5027245;28;20399;-74
2023/10/20 10:34:10;;;;;;;10.52;4.15;;;;;;;12.63;100.00;97627.56;5027803;28;20014;-74
2023/10/20 10:36:47;;;;;;;9.13;4.13;;;;;;;12.63;100.00;97622.16;5012751;28;20107;-74
2023/10/20 10:39:23;;;;;;;9.73;3.88;;;;;;;12.65;100.00;97620.94;5012169;28;20133;-74
2023/10/20 10:41:50;;;;;;;12.15;4.28;;;;;;;12.67;100.00;97612.66;5012382;28;20034;-74
2023/10/20 10:44:16;;;;;;;13.35;4.55;;;;;;;12.69;100.00;97611.38;5012383;28;20033;-74
2023/10/20 10:46:42;;;;;;;9.93;3.90;;;;;;;12.71;100.00;97608.50;5027100;28;20103;-74
2023/10/20 10:49:09;;;;;;;11.50;4.20;;;;;;;12.73;100.00;97606.44;5012129;28;20054;-74
2023/10/20 10:51:46;;;;;;;9.98;3.92;;;;;;;12.75;100.00;97605.19;5012370;28;20317;-74
2023/10/20 10:54:13;;;;;;;10.20;4.40;;;;;;;12.77;100.00;97596.91;5004281;28;20126;-75
2023/10/20 10:56:39;;;;;;;11.77;4.30;;;;;;;12.80;100.00;97587.56;5009740;28;20380;-75
2023/10/20 10:59:04;;;;;;;10.05;3.90;;;;;;;12.79;100.00;97584.03;4993498;28;20450;-76
2023/10/20 11:01:30;;;;;;;11.05;4.05;;;;;;;12.82;100.00;97574.72;4993314;28;20076;-76
2023/10/20 11:03:56;;;;;;;9.75;4.13;;;;;;;12.81;100.00;97573.91;5011001;28;20369;-76
2023/10/20 11:06:22;;;;;;;10.40;3.92;;;;;;;12.87;100.00;97558.72;4993124;28;20060;-75
2023/10/20 11:08:47;;;;;;;10.45;3.80;;;;;;;12.88;100.00;97565.78;5011091;28;20434;-76
2023/10/20 11:11:15;;;;;;;8.13;3.53;;;;;;;12.89;100.00;97573.66;5011037;28;20056;-75
2023/10/20 11:13:40;;;;;;;11.35;4.40;;;;;;;12.92;100.00;97572.44;4994433;28;20041;-76
2023/10/20 11:16:06;;;;;;;15.10;5.95;;;;;;;12.94;100.00;97563.09;5011172;28;20480;-76
2023/10/20 11:18:32;;;;;;;14.15;4.93;;;;;;;12.94;100.00;97560.41;4992969;28;20034;-75
2023/10/20 11:20:58;;;;;;;12.10;4.60;;;;;;;12.95;100.00;97550.44;5010797;28;20057;-76
2023/10/20 11:23:31;;;;;;;13.00;4.90;;;;;;;12.98;100.00;97536.53;4993134;28;20057;-76
2023/10/20 11:25:57;;;;;;;14.45;5.13;;;;;;;12.99;100.00;97540.91;4992066;28;20030;-76
2023/10/20 11:28:23;;;;;;;18.90;7.47;;;;;;;13.03;100.00;97544.00;5010558;28;20025;-76
2023/10/20 11:30:49;;;;;;;18.70;7.40;;;;;;;13.06;100.00;97535.50;4993031;28;20026;-76
2023/10/20 11:33:17;;;;;;;20.92;8.48;;;;;;;13.09;100.00;97541.31;5010476;28;20018;-76
2023/10/20 11:35:44;;;;;;;21.27;9.63;;;;;;;13.11;100.00;97539.22;5009038;28;20030;-76
2023/10/20 11:38:09;;;;;;;22.38;9.75;;;;;;;13.12;100.00;97523.88;4993297;28;20025;-75
2023/10/20 11:40:34;;;;;;;28.38;12.93;;;;;;;13.14;100.00;97529.88;5010365;28;20034;-75